createdAt,value
2023-10-24T00:01:17.574Z,2.72
2023-10-24T00:03:48.330Z,2.30
2023-10-24T00:06:19.445Z,2.45
2023-10-24T00:08:50.841Z,2.40
2023-10-24T00:11:21.541Z,2.53
2023-10-24T00:13:56.860Z,2.20
2023-10-24T00:16:27.710Z,2.47
2023-10-24T00:21:28.954Z,2.40
2023-10-24T00:23:59.687Z,2.50
2023-10-24T00:26:30.367Z,3.33
2023-10-24T00:29:03.739Z,2.80
2023-10-24T00:31:34.496Z,3.03
2023-10-24T00:34:05.220Z,2.65
2023-10-24T00:36:37.326Z,2.75
2023-10-24T00:39:09.748Z,2.58
2023-10-24T00:41:40.442Z,2.17
2023-10-24T00:44:14.874Z,2.30
2023-10-24T00:46:46.696Z,2.35
2023-10-24T00:49:17.711Z,2.20
2023-10-24T00:51:48.467Z,4.22
2023-10-24T00:54:19.179Z,4.40
2023-10-24T00:56:51.440Z,5.28
2023-10-24T00:59:27.651Z,2.90
2023-10-24T01:01:58.851Z,1.97
2023-10-24T01:04:30.012Z,2.42
2023-10-24T01:07:04.063Z,2.28
2023-10-24T01:09:34.804Z,2.55
2023-10-24T01:12:06.436Z,3.63
2023-10-24T01:14:40.318Z,2.95
2023-10-24T01:17:14.993Z,2.50
2023-10-24T01:19:45.687Z,2.10
2023-10-24T01:22:19.005Z,2.17
2023-10-24T01:24:51.756Z,2.20
2023-10-24T01:27:24.774Z,2.30
2023-10-24T01:29:55.447Z,2.25
2023-10-24T01:32:34.283Z,2.20
2023-10-24T01:35:05.248Z,2.10
2023-10-24T01:37:39.017Z,2.53
2023-10-24T01:40:12.475Z,2.35
2023-10-24T01:42:43.152Z,5.65
2023-10-24T01:45:16.977Z,3.00
2023-10-24T01:47:47.991Z,2.45
2023-10-24T01:50:18.657Z,2.30
2023-10-24T01:52:54.180Z,2.70
2023-10-24T01:55:25.035Z,2.63
2023-10-24T02:00:26.409Z,2.38
2023-10-24T02:03:00.086Z,2.38
2023-10-24T02:05:31.155Z,3.55
2023-10-24T02:08:05.905Z,2.42
2023-10-24T02:10:37.006Z,2.88
2023-10-24T02:13:07.827Z,2.75
2023-10-24T02:15:40.811Z,2.65
2023-10-24T02:18:11.737Z,2.58
2023-10-24T02:20:42.624Z,2.80
2023-10-24T02:25:48.120Z,2.80
2023-10-24T02:28:19.530Z,3.28
2023-10-24T02:30:52.168Z,25.10
2023-10-24T02:33:23.927Z,13.13
2023-10-24T02:35:56.593Z,3.13
2023-10-24T02:38:29.980Z,2.60
2023-10-24T02:41:00.819Z,2.63
2023-10-24T02:43:31.856Z,2.47
2023-10-24T02:46:07.297Z,2.55
2023-10-24T02:48:38.334Z,2.92
2023-10-24T02:51:09.095Z,2.40
2023-10-24T02:53:42.410Z,2.63
2023-10-24T02:56:13.051Z,2.53
2023-10-24T02:58:44.061Z,2.85
2023-10-24T03:06:19.204Z,31.75
2023-10-24T03:08:52.982Z,23.02
2023-10-24T03:11:28.361Z,6.32
2023-10-24T03:13:59.654Z,3.25
2023-10-24T03:16:31.919Z,3.35
2023-10-24T03:19:03.664Z,2.90
2023-10-24T03:21:34.374Z,3.22
2023-10-24T03:24:09.499Z,3.15
2023-10-24T03:26:40.397Z,2.97
2023-10-24T03:29:10.901Z,2.72
2023-10-24T03:31:41.543Z,3.15
2023-10-24T03:34:12.454Z,3.75
2023-10-24T03:39:16.094Z,19.60
2023-10-24T03:41:46.810Z,4.28
2023-10-24T03:44:17.517Z,2.97
2023-10-24T03:46:48.481Z,2.90
2023-10-24T03:49:19.481Z,3.42
2023-10-24T03:54:23.886Z,3.78
2023-10-24T03:56:54.507Z,3.80
2023-10-24T03:59:25.157Z,2.95
2023-10-24T04:01:55.817Z,3.20
2023-10-24T04:04:26.512Z,2.92
2023-10-24T04:06:57.241Z,3.08
2023-10-24T04:09:38.536Z,2.80
2023-10-24T04:12:10.767Z,3.20
2023-10-24T04:14:41.594Z,3.15
2023-10-24T04:19:42.830Z,3.10
2023-10-24T04:22:13.706Z,3.67
2023-10-24T04:24:47.112Z,3.42
2023-10-24T04:27:18.012Z,3.10
2023-10-24T04:29:48.930Z,4.70
2023-10-24T04:34:52.897Z,3.30
2023-10-24T04:37:23.708Z,3.75
2023-10-24T04:39:57.931Z,3.53
2023-10-24T04:42:28.776Z,3.17
2023-10-24T04:44:59.848Z,3.75
2023-10-24T04:47:30.446Z,21.88
2023-10-24T04:50:01.268Z,9.00
2023-10-24T04:52:32.092Z,3.53
2023-10-24T04:55:06.422Z,2.60
2023-10-24T04:57:36.990Z,3.10
2023-10-24T05:00:12.614Z,3.33
2023-10-24T05:02:43.628Z,2.85
2023-10-24T05:05:14.839Z,3.08
2023-10-24T05:07:45.824Z,3.13
2023-10-24T05:12:49.762Z,3.00
2023-10-24T05:15:20.537Z,3.05
2023-10-24T05:17:51.515Z,2.95
2023-10-24T05:22:54.072Z,2.83
2023-10-24T05:25:27.485Z,3.00
2023-10-24T05:27:58.082Z,2.83
2023-10-24T05:30:28.876Z,2.60
2023-10-24T05:32:59.944Z,2.70
2023-10-24T05:35:30.723Z,2.90
2023-10-24T05:38:01.472Z,3.00
2023-10-24T05:40:34.751Z,2.90
2023-10-24T05:43:06.189Z,2.65
2023-10-24T05:45:37.700Z,2.85
2023-10-24T05:48:09.206Z,2.53
2023-10-24T05:50:40.489Z,2.72
2023-10-24T05:53:11.107Z,2.85
2023-10-24T05:55:44.881Z,2.70
2023-10-24T05:58:20.587Z,2.33
2023-10-24T06:00:51.418Z,2.40
2023-10-24T06:03:23.037Z,3.60
2023-10-24T06:05:54.312Z,2.88
2023-10-24T06:08:25.135Z,2.63
2023-10-24T06:11:03.780Z,3.20
2023-10-24T06:13:35.766Z,2.70
2023-10-24T06:16:13.431Z,2.90
2023-10-24T06:18:44.765Z,2.85
2023-10-24T06:21:16.768Z,2.75
2023-10-24T06:23:47.486Z,2.70
2023-10-24T06:26:22.029Z,2.13
2023-10-24T06:28:52.941Z,2.05
2023-10-24T06:33:54.558Z,2.10
2023-10-24T06:36:25.365Z,2.20
2023-10-24T06:38:56.127Z,2.00
2023-10-24T06:41:29.434Z,2.25
2023-10-24T06:44:00.180Z,2.30
2023-10-24T06:46:30.878Z,2.25
2023-10-24T06:49:01.539Z,2.22
2023-10-24T06:51:33.138Z,2.45
2023-10-24T06:54:04.018Z,2.53
2023-10-24T06:59:08.845Z,2.35
2023-10-24T07:04:10.876Z,2.35
2023-10-24T07:06:41.563Z,2.22
2023-10-24T07:09:12.122Z,2.22
2023-10-24T07:11:45.301Z,2.13
2023-10-24T07:14:16.126Z,2.85
2023-10-24T07:16:46.767Z,3.75
2023-10-24T07:19:17.997Z,2.97
2023-10-24T07:21:49.288Z,2.50
2023-10-24T07:24:20.106Z,2.40
2023-10-24T07:26:53.398Z,2.53
2023-10-24T07:29:24.608Z,3.15
2023-10-24T07:31:55.355Z,2.40
2023-10-24T07:34:26.835Z,2.38
2023-10-24T07:36:57.746Z,3.20
2023-10-24T07:42:01.382Z,2.70
2023-10-24T07:44:31.940Z,2.45
2023-10-24T07:47:02.762Z,2.40
2023-10-24T07:52:05.504Z,3.20
2023-10-24T07:54:36.203Z,3.00
2023-10-24T07:57:11.259Z,2.95
2023-10-24T07:59:41.968Z,2.30
2023-10-24T08:04:43.159Z,2.30
2023-10-24T08:07:14.444Z,2.47
2023-10-24T08:09:45.032Z,2.25
2023-10-24T08:12:18.565Z,2.50
2023-10-24T08:14:49.286Z,4.15
2023-10-24T08:17:20.162Z,2.53
2023-10-24T08:19:53.815Z,3.17
2023-10-24T08:22:24.668Z,3.40
2023-10-24T08:24:55.424Z,2.83
2023-10-24T08:27:28.681Z,2.30
2023-10-24T08:29:59.344Z,2.60
2023-10-24T08:32:30.829Z,2.67
2023-10-24T08:35:01.610Z,3.08
2023-10-24T08:40:02.867Z,2.85
2023-10-24T08:42:38.043Z,3.25
2023-10-24T08:45:11.690Z,3.13
2023-10-24T08:47:42.956Z,2.97
2023-10-24T08:50:14.303Z,3.00
2023-10-24T08:52:45.028Z,3.00
2023-10-24T08:57:51.195Z,3.72
2023-10-24T09:00:22.031Z,3.22
2023-10-24T09:05:23.713Z,3.00
2023-10-24T09:07:54.437Z,3.45
2023-10-24T09:10:25.086Z,4.13
2023-10-24T09:15:29.832Z,3.97
2023-10-24T09:18:00.591Z,3.50
2023-10-24T09:23:09.082Z,4.03
2023-10-24T09:25:41.120Z,3.80
2023-10-24T09:28:24.893Z,3.90
2023-10-24T09:30:55.639Z,4.00
2023-10-24T09:36:13.411Z,3.58
2023-10-24T09:38:47.352Z,3.58
2023-10-24T09:41:18.801Z,3.85
2023-10-24T09:43:53.162Z,3.72
2023-10-24T09:46:25.465Z,4.03
2023-10-24T09:48:58.765Z,3.97
2023-10-24T09:51:30.026Z,3.75
2023-10-24T09:54:01.057Z,4.13
2023-10-24T09:56:32.396Z,5.10
2023-10-24T09:59:07.243Z,5.10
2023-10-24T10:01:39.044Z,4.18
2023-10-24T10:04:11.308Z,4.15
2023-10-24T10:06:58.362Z,4.32
2023-10-24T10:09:30.159Z,4.32
2023-10-24T10:14:53.318Z,4.28
2023-10-24T10:17:37.601Z,4.10
2023-10-24T10:20:39.777Z,4.40
2023-10-24T10:23:30.341Z,4.05
2023-10-24T10:26:08.525Z,4.60
2023-10-24T10:29:11.976Z,5.80
2023-10-24T10:32:39.713Z,5.13
2023-10-24T10:35:00.698Z,4.60
2023-10-24T10:37:37.710Z,4.70
2023-10-24T10:40:29.463Z,4.20
2023-10-24T10:43:03.824Z,4.47
2023-10-24T10:45:36.039Z,4.78
2023-10-24T10:48:10.080Z,4.32
2023-10-24T10:50:40.860Z,4.40
2023-10-24T10:56:22.076Z,5.07
2023-10-24T10:59:23.425Z,4.80
2023-10-24T11:02:22.719Z,4.43
2023-10-24T11:04:56.777Z,5.60
2023-10-24T11:07:57.995Z,4.63
2023-10-24T11:10:29.000Z,5.00
2023-10-24T11:12:59.893Z,4.78
2023-10-24T11:15:32.170Z,6.15
2023-10-24T11:18:03.501Z,5.88
2023-10-24T11:20:39.353Z,5.32
2023-10-24T11:23:12.588Z,5.20
2023-10-24T11:25:43.742Z,6.22
2023-10-24T11:28:14.936Z,5.80
2023-10-24T11:30:45.913Z,5.38
2023-10-24T11:33:16.722Z,5.53
2023-10-24T11:38:20.888Z,5.47
2023-10-24T11:40:51.687Z,4.97
2023-10-24T11:45:52.741Z,5.00
2023-10-24T11:50:56.773Z,5.20
2023-10-24T11:53:28.410Z,5.40
2023-10-24T11:55:59.835Z,4.63
2023-10-24T11:58:39.959Z,5.90
2023-10-24T12:01:10.689Z,5.17
2023-10-24T12:03:50.461Z,5.30
2023-10-24T12:06:24.149Z,5.57
2023-10-24T12:08:54.826Z,9.13
2023-10-24T12:11:26.846Z,6.57
2023-10-24T12:13:57.720Z,6.07
2023-10-24T12:16:47.142Z,6.43
2023-10-24T12:19:22.803Z,6.30
2023-10-24T12:24:27.434Z,6.43
2023-10-24T12:26:58.545Z,7.70
2023-10-24T12:29:29.380Z,6.50
2023-10-24T12:34:30.912Z,11.95
2023-10-24T12:37:04.970Z,8.35
2023-10-24T12:39:35.688Z,8.43
2023-10-24T12:44:37.093Z,6.55
2023-10-24T12:49:38.504Z,6.18
2023-10-24T12:54:43.193Z,6.60
2023-10-24T12:57:13.926Z,6.95
2023-10-24T13:02:15.241Z,7.87
2023-10-24T13:04:46.340Z,6.93
2023-10-24T13:07:19.640Z,6.25
2023-10-24T13:09:50.434Z,6.93
2023-10-24T13:14:52.287Z,6.15
2023-10-24T13:17:23.333Z,5.78
2023-10-24T13:19:54.820Z,7.10
2023-10-24T13:22:28.462Z,6.05
2023-10-24T13:24:59.356Z,6.00
2023-10-24T13:30:03.230Z,6.27
2023-10-24T13:32:35.958Z,6.55
2023-10-24T13:37:43.331Z,6.53
2023-10-24T13:40:15.170Z,7.13
2023-10-24T13:42:45.935Z,7.10
2023-10-24T13:45:16.714Z,6.45
2023-10-24T13:50:17.939Z,9.67
2023-10-24T13:52:52.665Z,11.50
2023-10-24T13:55:23.445Z,9.77
2023-10-24T13:57:54.160Z,9.02
2023-10-24T14:00:25.319Z,9.25
2023-10-24T14:02:56.181Z,8.40
2023-10-24T14:05:27.031Z,9.02
2023-10-24T14:10:30.777Z,9.35
2023-10-24T14:13:01.448Z,8.68
2023-10-24T14:18:02.836Z,8.80
2023-10-24T14:20:34.841Z,8.95
2023-10-24T14:23:08.226Z,9.88
2023-10-24T14:25:39.277Z,9.50
2023-10-24T14:28:09.965Z,9.57
2023-10-24T14:30:40.861Z,9.80
2023-10-24T14:33:11.549Z,9.13
2023-10-24T14:35:42.587Z,8.95
2023-10-24T14:38:15.948Z,9.95
2023-10-24T14:40:46.689Z,10.52
2023-10-24T14:45:47.931Z,10.50
2023-10-24T14:48:18.676Z,11.00
2023-10-24T14:50:49.402Z,10.57
2023-10-24T14:53:22.694Z,10.88
2023-10-24T14:55:53.374Z,11.57
2023-10-24T14:58:24.485Z,11.13
2023-10-24T15:00:57.178Z,9.40
2023-10-24T15:03:28.100Z,11.10
2023-10-24T15:08:32.177Z,10.95
2023-10-24T15:11:03.103Z,11.35
2023-10-24T15:13:33.932Z,11.88
2023-10-24T15:18:37.721Z,11.73
2023-10-24T15:21:08.996Z,11.50
2023-10-24T15:23:44.319Z,12.57
2023-10-24T15:26:15.101Z,13.80
2023-10-24T15:31:16.120Z,12.85
2023-10-24T15:33:46.831Z,12.95
2023-10-24T15:36:17.554Z,11.60
2023-10-24T15:38:50.879Z,12.03
2023-10-24T15:41:21.573Z,12.52
2023-10-24T15:44:06.512Z,10.43
2023-10-24T15:46:40.808Z,11.48
2023-10-24T15:49:11.497Z,11.70
2023-10-24T15:51:45.609Z,11.48
2023-10-24T15:54:18.997Z,10.77
2023-10-24T15:56:49.698Z,10.70
2023-10-24T15:59:20.721Z,10.65
